createdAt,value
2022-11-10T00:00:17.089Z,10.50
2022-11-10T00:01:16.574Z,10.51
2022-11-10T00:02:17.246Z,10.50
2022-11-10T00:03:16.702Z,10.60
2022-11-10T00:04:17.227Z,10.64
2022-11-10T00:05:16.844Z,10.64
2022-11-10T00:06:16.329Z,10.63
2022-11-10T00:07:16.959Z,10.61
2022-11-10T00:08:16.470Z,10.64
2022-11-10T00:09:17.162Z,10.60
2022-11-10T00:10:16.611Z,10.56
2022-11-10T00:11:17.038Z,10.54
2022-11-10T00:12:16.713Z,10.56
2022-11-10T00:13:17.159Z,10.56
2022-11-10T00:14:16.600Z,10.48
2022-11-10T00:15:17.045Z,10.47
2022-11-10T00:16:16.484Z,10.47
2022-11-10T00:17:16.920Z,10.51
2022-11-10T00:18:16.380Z,10.52
2022-11-10T00:19:16.878Z,10.48
2022-11-10T00:20:16.363Z,10.50
2022-11-10T00:21:16.842Z,10.45
2022-11-10T00:22:17.083Z,10.51
2022-11-10T00:23:16.587Z,10.48
2022-11-10T00:24:17.069Z,10.48
2022-11-10T00:25:16.544Z,10.51
2022-11-10T00:26:17.013Z,10.48
2022-11-10T00:27:16.499Z,10.54
2022-11-10T00:28:17.003Z,10.52
2022-11-10T00:29:16.446Z,10.44
2022-11-10T00:30:16.923Z,10.41
2022-11-10T00:31:16.362Z,10.39
2022-11-10T00:32:16.633Z,10.40
2022-11-10T00:33:17.118Z,10.36
2022-11-10T00:34:16.583Z,10.33
2022-11-10T00:35:17.079Z,10.29
2022-11-10T00:36:16.570Z,10.27
2022-11-10T00:37:17.042Z,10.27
2022-11-10T00:38:16.545Z,10.23
2022-11-10T00:39:17.025Z,10.16
2022-11-10T00:40:16.487Z,10.14
2022-11-10T00:41:16.933Z,10.14
2022-11-10T00:42:16.649Z,10.17
2022-11-10T00:43:17.081Z,10.26
2022-11-10T00:44:16.683Z,10.30
2022-11-10T00:45:17.127Z,10.30
2022-11-10T00:46:16.588Z,10.24
2022-11-10T00:47:17.038Z,10.19
2022-11-10T00:48:16.489Z,10.16
2022-11-10T00:49:16.986Z,10.12
2022-11-10T00:50:16.459Z,10.13
2022-11-10T00:51:16.919Z,10.14
2022-11-10T00:52:16.866Z,10.17
2022-11-10T00:53:16.347Z,10.19
2022-11-10T00:54:16.778Z,10.14
2022-11-10T00:55:17.255Z,10.13
2022-11-10T00:56:16.688Z,10.14
2022-11-10T00:57:17.116Z,10.12
2022-11-10T00:58:16.554Z,10.12
2022-11-10T00:59:17.011Z,10.09
2022-11-10T01:00:16.458Z,10.06
2022-11-10T01:01:16.975Z,10.06
2022-11-10T01:02:17.180Z,10.05
2022-11-10T01:03:16.675Z,10.02
2022-11-10T01:04:17.177Z,9.85
2022-11-10T01:05:16.635Z,9.88
2022-11-10T01:06:17.150Z,9.98
2022-11-10T01:07:16.682Z,9.91
2022-11-10T01:08:17.133Z,9.91
2022-11-10T01:09:16.577Z,9.95
2022-11-10T01:10:17.035Z,9.91
2022-11-10T01:11:16.481Z,9.89
2022-11-10T01:12:16.845Z,9.84
2022-11-10T01:13:17.309Z,9.88
2022-11-10T01:14:16.745Z,9.84
2022-11-10T01:15:17.191Z,9.80
2022-11-10T01:16:16.707Z,9.76
2022-11-10T01:17:17.169Z,9.76
2022-11-10T01:18:16.625Z,9.74
2022-11-10T01:19:17.082Z,9.61
2022-11-10T01:20:16.583Z,9.65
2022-11-10T01:21:17.078Z,9.72
2022-11-10T01:22:17.005Z,9.61
2022-11-10T01:23:16.453Z,9.55
2022-11-10T01:24:16.907Z,9.53
2022-11-10T01:25:16.337Z,9.53
2022-11-10T01:26:16.766Z,9.54
2022-11-10T01:27:17.187Z,9.55
2022-11-10T01:28:16.636Z,9.54
2022-11-10T01:29:17.063Z,9.48
2022-11-10T01:30:16.522Z,9.58
2022-11-10T01:31:16.990Z,9.58
2022-11-10T01:32:16.891Z,9.57
2022-11-10T01:33:16.344Z,9.61
2022-11-10T01:34:16.815Z,9.48
2022-11-10T01:35:17.298Z,9.44
2022-11-10T01:36:16.780Z,9.45
2022-11-10T01:37:17.238Z,9.45
2022-11-10T01:38:16.710Z,9.47
2022-11-10T01:39:17.173Z,9.40
2022-11-10T01:40:16.758Z,9.40
2022-11-10T01:41:16.294Z,9.30
2022-11-10T01:42:16.621Z,9.20
2022-11-10T01:43:17.075Z,9.24
2022-11-10T01:44:16.526Z,9.22
2022-11-10T01:45:16.980Z,9.20
2022-11-10T01:46:16.455Z,9.02
2022-11-10T01:47:16.934Z,8.95
2022-11-10T01:48:16.411Z,8.94
2022-11-10T01:49:16.861Z,9.06
2022-11-10T01:50:16.348Z,8.82
2022-11-10T01:51:16.812Z,8.91
2022-11-10T01:52:16.801Z,8.85
2022-11-10T01:53:17.232Z,8.92
2022-11-10T01:54:16.666Z,9.10
2022-11-10T01:55:17.101Z,9.00
2022-11-10T01:56:16.534Z,9.07
2022-11-10T01:57:16.969Z,9.07
2022-11-10T01:58:16.435Z,9.19
2022-11-10T01:59:16.879Z,9.23
2022-11-10T02:00:16.346Z,9.20
2022-11-10T02:01:16.831Z,9.17
2022-11-10T02:02:16.658Z,9.13
2022-11-10T02:03:17.165Z,9.23
2022-11-10T02:04:16.641Z,9.07
2022-11-10T02:05:17.157Z,9.09
2022-11-10T02:06:16.629Z,9.15
2022-11-10T02:07:17.135Z,9.10
2022-11-10T02:08:16.673Z,9.06
2022-11-10T02:09:17.104Z,9.05
2022-11-10T02:10:16.559Z,9.07
2022-11-10T02:11:16.993Z,9.05
2022-11-10T02:12:16.325Z,9.02
2022-11-10T02:13:16.757Z,8.88
2022-11-10T02:14:17.193Z,8.84
2022-11-10T02:15:16.679Z,8.82
2022-11-10T02:16:17.147Z,8.69
2022-11-10T02:17:16.654Z,8.75
2022-11-10T02:18:17.169Z,8.74
2022-11-10T02:19:16.662Z,8.78
2022-11-10T02:20:17.137Z,8.72
2022-11-10T02:21:16.622Z,8.64
2022-11-10T02:22:17.065Z,8.51
2022-11-10T02:23:16.518Z,8.59
2022-11-10T02:24:16.961Z,8.55
2022-11-10T02:25:16.408Z,8.57
2022-11-10T02:26:16.876Z,8.62
2022-11-10T02:27:16.311Z,8.54
2022-11-10T02:28:16.770Z,8.58
2022-11-10T02:29:17.494Z,8.44
2022-11-10T02:30:16.990Z,8.47
2022-11-10T02:31:16.457Z,8.54
2022-11-10T02:32:16.737Z,8.58
2022-11-10T02:33:17.206Z,8.45
2022-11-10T02:34:16.698Z,8.39
2022-11-10T02:35:17.152Z,8.40
2022-11-10T02:36:16.641Z,8.57
2022-11-10T02:37:17.083Z,8.61
2022-11-10T02:38:16.517Z,8.59
2022-11-10T02:39:16.990Z,8.57
2022-11-10T02:40:16.434Z,8.55
2022-11-10T02:41:16.894Z,8.48
2022-11-10T02:42:16.877Z,8.40
2022-11-10T02:43:16.349Z,8.48
2022-11-10T02:44:16.840Z,8.27
2022-11-10T02:45:16.373Z,8.17
2022-11-10T02:46:16.871Z,8.48
2022-11-10T02:47:16.365Z,8.31
2022-11-10T02:48:16.848Z,8.13
2022-11-10T02:49:16.318Z,8.08
2022-11-10T02:50:16.834Z,7.99
2022-11-10T02:51:16.297Z,7.99
2022-11-10T02:52:16.565Z,7.99
2022-11-10T02:53:17.006Z,7.93
2022-11-10T02:54:16.503Z,8.03
2022-11-10T02:55:16.962Z,8.05
2022-11-10T02:56:16.409Z,8.12
2022-11-10T02:57:16.881Z,8.21
2022-11-10T02:58:16.339Z,8.20
2022-11-10T02:59:16.807Z,8.21
2022-11-10T03:00:17.293Z,8.30
2022-11-10T03:01:16.821Z,8.20
2022-11-10T03:02:16.822Z,7.96
2022-11-10T03:03:17.323Z,7.77
2022-11-10T03:04:16.814Z,7.80
2022-11-10T03:05:17.272Z,7.64
2022-11-10T03:06:16.724Z,7.62
2022-11-10T03:07:17.232Z,7.57
2022-11-10T03:08:16.734Z,7.55
2022-11-10T03:09:17.237Z,7.53
2022-11-10T03:10:16.675Z,7.44
2022-11-10T03:11:17.148Z,7.47
2022-11-10T03:12:17.177Z,7.37
2022-11-10T03:13:16.635Z,7.15
2022-11-10T03:14:17.092Z,7.06
2022-11-10T03:15:16.601Z,7.02
2022-11-10T03:16:17.071Z,6.95
2022-11-10T03:17:16.567Z,6.95
2022-11-10T03:18:17.029Z,6.96
2022-11-10T03:19:16.532Z,6.96
2022-11-10T03:20:17.032Z,6.98
2022-11-10T03:21:16.471Z,6.98
2022-11-10T03:22:16.402Z,6.95
2022-11-10T03:23:16.848Z,6.96
2022-11-10T03:24:16.301Z,7.06
2022-11-10T03:25:16.743Z,7.03
2022-11-10T03:26:17.197Z,7.03
2022-11-10T03:27:16.645Z,7.00
2022-11-10T03:28:17.124Z,7.03
2022-11-10T03:29:16.590Z,7.06
2022-11-10T03:30:17.090Z,7.05
2022-11-10T03:31:16.546Z,7.12
2022-11-10T03:32:16.781Z,7.10
2022-11-10T03:33:17.228Z,7.16
2022-11-10T03:34:16.708Z,7.20
2022-11-10T03:35:17.141Z,7.19
2022-11-10T03:36:16.617Z,7.20
2022-11-10T03:37:17.051Z,7.19
2022-11-10T03:38:16.483Z,7.12
2022-11-10T03:39:16.909Z,7.06
2022-11-10T03:40:16.466Z,6.92
2022-11-10T03:41:19.640Z,6.79
2022-11-10T03:42:16.733Z,6.81
2022-11-10T03:43:17.213Z,6.41
2022-11-10T03:44:16.695Z,6.38
2022-11-10T03:45:17.162Z,6.41
2022-11-10T03:46:16.692Z,6.37
2022-11-10T03:47:17.203Z,6.27
2022-11-10T03:48:16.690Z,6.20
2022-11-10T03:49:17.171Z,6.21
2022-11-10T03:50:16.612Z,6.21
2022-11-10T03:51:17.036Z,6.17
2022-11-10T03:52:16.348Z,6.26
2022-11-10T03:53:16.783Z,6.33
2022-11-10T03:54:17.230Z,6.40
2022-11-10T03:55:16.709Z,6.33
2022-11-10T03:56:17.198Z,6.38
2022-11-10T03:57:16.688Z,6.41
2022-11-10T03:58:17.182Z,6.34
2022-11-10T03:59:16.639Z,6.24
2022-11-10T04:00:17.169Z,6.30
2022-11-10T04:01:16.672Z,6.33
2022-11-10T04:02:16.649Z,6.29
2022-11-10T04:03:17.119Z,6.29
2022-11-10T04:04:16.593Z,6.34
2022-11-10T04:05:17.028Z,6.20
2022-11-10T04:06:16.468Z,6.13
2022-11-10T04:07:16.912Z,6.03
2022-11-10T04:08:16.381Z,5.93
2022-11-10T04:09:16.837Z,5.55
2022-11-10T04:10:17.287Z,5.68
2022-11-10T04:11:16.742Z,5.85
2022-11-10T04:12:19.516Z,5.98
2022-11-10T04:13:16.463Z,5.78
2022-11-10T04:14:16.971Z,5.86
2022-11-10T04:15:16.436Z,5.85
2022-11-10T04:16:16.891Z,5.92
2022-11-10T04:17:16.384Z,5.88
2022-11-10T04:18:16.850Z,5.92
2022-11-10T04:19:16.284Z,5.99
2022-11-10T04:20:16.724Z,6.05
2022-11-10T04:21:17.160Z,6.08
2022-11-10T04:22:17.129Z,6.05
2022-11-10T04:23:16.576Z,6.05
2022-11-10T04:24:17.041Z,6.02
2022-11-10T04:25:16.510Z,5.93
2022-11-10T04:26:17.001Z,5.89
2022-11-10T04:27:16.489Z,5.86
2022-11-10T04:28:16.960Z,5.91
2022-11-10T04:29:16.426Z,5.89
2022-11-10T04:30:16.908Z,5.99
2022-11-10T04:31:16.383Z,6.02
2022-11-10T04:32:17.142Z,5.99
2022-11-10T04:33:16.572Z,5.89
2022-11-10T04:34:17.038Z,5.96
2022-11-10T04:35:16.505Z,5.91
2022-11-10T04:36:16.945Z,5.84
2022-11-10T04:37:16.419Z,5.85
2022-11-10T04:38:16.842Z,5.75
2022-11-10T04:39:17.296Z,5.67
2022-11-10T04:40:16.731Z,5.70
2022-11-10T04:41:17.176Z,5.70
2022-11-10T04:42:16.941Z,5.71
2022-11-10T04:43:16.444Z,5.71
2022-11-10T04:44:16.938Z,5.70
2022-11-10T04:45:16.409Z,5.71
2022-11-10T04:46:16.872Z,5.68
2022-11-10T04:47:16.347Z,5.62
2022-11-10T04:48:16.805Z,5.55
2022-11-10T04:49:17.259Z,5.58
2022-11-10T04:50:16.697Z,5.68
2022-11-10T04:51:17.230Z,5.70
2022-11-10T04:52:16.790Z,5.71
2022-11-10T04:53:17.254Z,5.67
2022-11-10T04:54:16.685Z,5.70
2022-11-10T04:55:17.155Z,5.71
2022-11-10T04:56:16.605Z,5.70
2022-11-10T04:57:17.060Z,5.75
2022-11-10T04:58:16.559Z,5.57
2022-11-10T04:59:17.022Z,5.47
2022-11-10T05:00:16.505Z,5.51
2022-11-10T05:01:17.050Z,5.54
2022-11-10T05:02:16.534Z,5.60
2022-11-10T05:03:16.997Z,5.64
2022-11-10T05:04:16.420Z,5.68
2022-11-10T05:05:16.907Z,5.68
2022-11-10T05:06:16.343Z,5.43
2022-11-10T05:07:16.786Z,5.23
2022-11-10T05:08:17.233Z,5.19
2022-11-10T05:09:16.689Z,5.12
2022-11-10T05:10:17.132Z,4.96
2022-11-10T05:11:16.590Z,4.78
2022-11-10T05:12:21.245Z,4.69
2022-11-10T05:13:16.918Z,4.69
2022-11-10T05:14:16.440Z,4.71
2022-11-10T05:15:16.919Z,4.82
2022-11-10T05:16:16.429Z,4.85
2022-11-10T05:17:16.903Z,4.84
2022-11-10T05:18:16.331Z,4.81
2022-11-10T05:19:16.754Z,4.76
2022-11-10T05:20:17.215Z,4.63
2022-11-10T05:21:16.646Z,4.54
2022-11-10T05:22:16.357Z,4.69
2022-11-10T05:23:16.789Z,4.72
2022-11-10T05:24:17.243Z,4.75
2022-11-10T05:25:16.703Z,4.74
2022-11-10T05:26:17.196Z,4.76
2022-11-10T05:27:16.672Z,4.76
2022-11-10T05:28:17.173Z,5.12
2022-11-10T05:29:16.671Z,4.96
2022-11-10T05:30:17.141Z,4.82
2022-11-10T05:31:16.608Z,4.76
2022-11-10T05:32:17.178Z,4.84
2022-11-10T05:33:16.616Z,4.85
2022-11-10T05:34:17.054Z,4.78
2022-11-10T05:35:16.486Z,4.75
2022-11-10T05:36:16.947Z,4.75
2022-11-10T05:37:16.398Z,4.76
2022-11-10T05:38:16.837Z,4.85
2022-11-10T05:39:17.361Z,4.85
2022-11-10T05:40:16.868Z,4.84
2022-11-10T05:41:16.382Z,4.89
2022-11-10T05:42:17.200Z,4.89
2022-11-10T05:43:16.699Z,4.88
2022-11-10T05:44:17.155Z,4.92
2022-11-10T05:45:16.695Z,4.96
2022-11-10T05:46:17.191Z,4.91
2022-11-10T05:47:16.649Z,4.95
2022-11-10T05:48:17.106Z,4.99
2022-11-10T05:49:16.533Z,4.89
2022-11-10T05:50:16.972Z,4.79
2022-11-10T05:51:16.419Z,4.75
2022-11-10T05:52:17.254Z,4.61
2022-11-10T05:53:16.721Z,4.48
2022-11-10T05:54:17.207Z,4.43
2022-11-10T05:55:16.673Z,4.38
2022-11-10T05:56:17.135Z,4.37
2022-11-10T05:57:16.642Z,4.37
2022-11-10T05:58:17.149Z,4.50
2022-11-10T05:59:16.629Z,4.40
2022-11-10T06:00:17.125Z,4.10
2022-11-10T06:01:16.594Z,4.03
2022-11-10T06:02:16.955Z,4.08
2022-11-10T06:03:16.481Z,4.14
2022-11-10T06:04:17.114Z,4.17
2022-11-10T06:05:16.572Z,4.19
2022-11-10T06:06:17.004Z,4.20
2022-11-10T06:07:16.486Z,4.23
2022-11-10T06:08:16.985Z,4.21
2022-11-10T06:09:16.506Z,4.23
2022-11-10T06:10:16.979Z,4.30
2022-11-10T06:11:16.455Z,4.30
2022-11-10T06:12:17.152Z,4.34
2022-11-10T06:13:16.628Z,4.37
2022-11-10T06:14:17.097Z,4.37
2022-11-10T06:15:16.581Z,4.37
2022-11-10T06:16:17.051Z,4.41
2022-11-10T06:17:16.501Z,4.38
2022-11-10T06:18:17.009Z,4.43
2022-11-10T06:19:16.447Z,4.43
2022-11-10T06:20:16.915Z,4.40
2022-11-10T06:21:16.356Z,4.38
2022-11-10T06:22:16.899Z,4.38
2022-11-10T06:23:16.338Z,4.36
2022-11-10T06:24:16.801Z,4.30
2022-11-10T06:25:17.278Z,4.30
2022-11-10T06:26:16.736Z,4.27
2022-11-10T06:27:17.218Z,4.12
2022-11-10T06:28:16.705Z,4.02
2022-11-10T06:29:17.607Z,4.00
2022-11-10T06:30:16.867Z,3.86
2022-11-10T06:31:16.365Z,3.95
2022-11-10T06:32:16.901Z,4.02
2022-11-10T06:33:16.329Z,4.10
2022-11-10T06:34:16.781Z,4.12
2022-11-10T06:35:17.210Z,4.14
2022-11-10T06:36:16.668Z,4.17
2022-11-10T06:37:17.122Z,4.19
2022-11-10T06:38:16.569Z,4.19
2022-11-10T06:39:17.045Z,4.21
2022-11-10T06:40:16.536Z,4.20
2022-11-10T06:41:20.066Z,4.28
2022-11-10T06:42:16.782Z,4.27
2022-11-10T06:43:17.235Z,4.19
2022-11-10T06:44:16.693Z,4.12
2022-11-10T06:45:17.182Z,4.20
2022-11-10T06:46:16.645Z,4.13
2022-11-10T06:47:17.088Z,4.09
2022-11-10T06:48:16.547Z,4.06
2022-11-10T06:49:16.980Z,4.08
2022-11-10T06:50:16.418Z,4.06
2022-11-10T06:51:16.885Z,4.05
2022-11-10T06:52:16.733Z,4.02
2022-11-10T06:53:17.195Z,3.95
2022-11-10T06:54:16.676Z,3.93
2022-11-10T06:55:17.140Z,3.92
2022-11-10T06:56:16.606Z,3.95
2022-11-10T06:57:17.079Z,4.00
2022-11-10T06:58:16.602Z,4.03
2022-11-10T06:59:17.068Z,4.14
2022-11-10T07:00:16.504Z,4.16
2022-11-10T07:01:21.346Z,4.16
2022-11-10T07:02:17.033Z,4.23
2022-11-10T07:03:16.497Z,4.20
2022-11-10T07:04:20.034Z,4.17
2022-11-10T07:05:16.597Z,4.20
2022-11-10T07:06:17.073Z,4.20
2022-11-10T07:07:16.571Z,4.31
2022-11-10T07:08:17.106Z,4.33
2022-11-10T07:09:16.598Z,4.33
2022-11-10T07:10:17.111Z,4.40
2022-11-10T07:11:16.573Z,4.43
2022-11-10T07:12:16.553Z,4.46
2022-11-10T07:13:17.007Z,4.46
2022-11-10T07:14:16.448Z,4.46
2022-11-10T07:15:16.880Z,4.36
2022-11-10T07:16:19.326Z,4.33
2022-11-10T07:17:16.894Z,4.30
2022-11-10T07:18:16.331Z,4.30
2022-11-10T07:19:16.764Z,4.26
2022-11-10T07:20:17.227Z,4.17
2022-11-10T07:21:16.709Z,4.17
2022-11-10T07:22:17.173Z,4.20
2022-11-10T07:23:16.705Z,4.20
2022-11-10T07:24:17.217Z,4.23
2022-11-10T07:25:16.705Z,4.24
2022-11-10T07:26:17.177Z,4.28
2022-11-10T07:27:16.615Z,4.34
2022-11-10T07:28:17.072Z,4.41
2022-11-10T07:29:16.555Z,4.48
2022-11-10T07:30:17.017Z,4.51
2022-11-10T07:31:16.468Z,4.47
2022-11-10T07:32:17.097Z,4.48
2022-11-10T07:33:16.542Z,4.46
2022-11-10T07:34:17.012Z,4.55
2022-11-10T07:35:16.493Z,4.57
2022-11-10T07:36:16.978Z,4.55
2022-11-10T07:37:16.434Z,4.51
2022-11-10T07:38:16.939Z,4.50
2022-11-10T07:39:16.420Z,4.54
2022-11-10T07:40:16.893Z,4.58
2022-11-10T07:41:16.384Z,4.69
2022-11-10T07:42:16.439Z,4.69
2022-11-10T07:43:16.946Z,4.75
2022-11-10T07:44:16.435Z,4.78
2022-11-10T07:45:16.873Z,4.91
2022-11-10T07:46:16.306Z,4.95
2022-11-10T07:47:16.742Z,4.98
2022-11-10T07:48:17.199Z,5.05
2022-11-10T07:49:16.657Z,5.16
2022-11-10T07:50:17.124Z,5.16
2022-11-10T07:51:16.599Z,5.10
2022-11-10T07:52:17.343Z,5.09
2022-11-10T07:53:16.834Z,5.13
2022-11-10T07:54:16.348Z,5.13
2022-11-10T07:55:16.845Z,5.19
2022-11-10T07:56:16.289Z,5.20
2022-11-10T07:57:16.729Z,5.23
2022-11-10T07:58:17.164Z,5.24
2022-11-10T07:59:16.609Z,5.31
2022-11-10T08:00:17.097Z,5.48
2022-11-10T08:01:16.640Z,5.51
2022-11-10T08:02:17.089Z,5.55
2022-11-10T08:03:16.532Z,5.75
2022-11-10T08:04:16.984Z,5.84
2022-11-10T08:05:16.461Z,5.92
2022-11-10T08:06:16.990Z,6.00
2022-11-10T08:07:16.627Z,6.03
2022-11-10T08:08:16.406Z,6.13
2022-11-10T08:09:16.910Z,6.29
2022-11-10T08:10:16.382Z,6.38
2022-11-10T08:11:16.814Z,6.59
2022-11-10T08:12:16.622Z,6.64
2022-11-10T08:13:17.073Z,6.82
2022-11-10T08:14:16.520Z,6.81
2022-11-10T08:15:16.974Z,6.89
2022-11-10T08:16:16.415Z,7.00
2022-11-10T08:17:16.866Z,7.06
2022-11-10T08:18:16.326Z,7.15
2022-11-10T08:19:16.776Z,7.26
2022-11-10T08:20:17.279Z,7.40
2022-11-10T08:21:16.777Z,7.50
2022-11-10T08:22:17.005Z,7.57
2022-11-10T08:23:16.487Z,7.65
2022-11-10T08:24:16.962Z,7.77
2022-11-10T08:25:16.430Z,7.81
2022-11-10T08:26:16.879Z,7.91
2022-11-10T08:27:16.309Z,7.98
2022-11-10T08:28:16.790Z,8.08
2022-11-10T08:29:17.258Z,8.09
2022-11-10T08:30:16.726Z,8.17
2022-11-10T08:31:17.157Z,8.20
2022-11-10T08:32:16.870Z,8.24
2022-11-10T08:33:16.358Z,8.26
2022-11-10T08:34:16.833Z,8.36
2022-11-10T08:35:16.422Z,8.37
2022-11-10T08:36:16.888Z,8.40
2022-11-10T08:37:16.385Z,8.44
2022-11-10T08:38:16.892Z,8.47
2022-11-10T08:39:24.969Z,8.54
2022-11-10T08:40:16.377Z,8.55
2022-11-10T08:41:16.826Z,8.59
2022-11-10T08:42:16.509Z,8.61
2022-11-10T08:43:16.953Z,8.59
2022-11-10T08:44:20.646Z,8.65
2022-11-10T08:45:16.827Z,8.72
2022-11-10T08:46:17.261Z,8.76
2022-11-10T08:47:16.768Z,8.82
2022-11-10T08:48:17.310Z,8.89
2022-11-10T08:49:16.984Z,8.94
2022-11-10T08:50:16.504Z,8.95
2022-11-10T08:51:16.984Z,8.95
2022-11-10T08:52:16.704Z,8.98
2022-11-10T08:53:17.178Z,9.03
2022-11-10T08:54:16.657Z,8.99
2022-11-10T08:55:17.125Z,8.96
2022-11-10T08:56:16.554Z,8.91
2022-11-10T08:57:17.012Z,8.91
2022-11-10T08:58:16.566Z,8.88
2022-11-10T08:59:17.001Z,8.86
2022-11-10T09:00:16.547Z,8.91
2022-11-10T09:01:16.991Z,8.89
2022-11-10T09:02:16.759Z,8.82
2022-11-10T09:03:17.271Z,8.84
2022-11-10T09:04:16.760Z,8.82
2022-11-10T09:05:17.321Z,8.79
2022-11-10T09:06:16.808Z,8.76
2022-11-10T09:07:17.291Z,8.76
2022-11-10T09:08:16.858Z,8.78
2022-11-10T09:09:16.354Z,8.75
2022-11-10T09:10:16.810Z,8.74
2022-11-10T09:11:17.265Z,8.69
2022-11-10T09:12:16.710Z,8.68
2022-11-10T09:13:17.144Z,8.67
2022-11-10T09:14:16.571Z,8.67
2022-11-10T09:15:17.048Z,8.65
2022-11-10T09:16:16.498Z,8.64
2022-11-10T09:17:16.960Z,8.62
2022-11-10T09:18:16.424Z,8.64
2022-11-10T09:19:19.772Z,8.68
2022-11-10T09:20:16.732Z,8.72
2022-11-10T09:21:17.231Z,8.76
2022-11-10T09:22:16.809Z,8.82
2022-11-10T09:23:17.300Z,8.88
2022-11-10T09:24:16.736Z,8.88
2022-11-10T09:25:17.204Z,8.94
2022-11-10T09:26:16.680Z,8.96
2022-11-10T09:27:17.133Z,8.99
2022-11-10T09:28:16.595Z,9.06
2022-11-10T09:29:17.054Z,9.13
2022-11-10T09:30:18.034Z,9.22
2022-11-10T09:31:16.902Z,9.24
2022-11-10T09:32:16.417Z,9.33
2022-11-10T09:33:16.889Z,9.41
2022-11-10T09:34:16.355Z,9.44
2022-11-10T09:35:16.864Z,9.48
2022-11-10T09:36:16.364Z,9.51
2022-11-10T09:37:16.858Z,9.58
2022-11-10T09:38:16.322Z,9.58
2022-11-10T09:39:16.757Z,9.61
2022-11-10T09:40:17.240Z,9.71
2022-11-10T09:41:16.703Z,9.74
2022-11-10T09:42:17.131Z,9.82
2022-11-10T09:43:16.579Z,9.91
2022-11-10T09:44:17.050Z,10.02
2022-11-10T09:45:16.484Z,10.06
2022-11-10T09:46:16.941Z,10.12
2022-11-10T09:47:18.847Z,10.17
2022-11-10T09:48:17.227Z,10.14
2022-11-10T09:49:16.709Z,10.26
2022-11-10T09:50:17.228Z,10.23
2022-11-10T09:51:16.710Z,10.14
2022-11-10T09:52:16.390Z,10.23
2022-11-10T09:53:16.870Z,10.23
2022-11-10T09:54:16.340Z,10.24
2022-11-10T09:55:16.997Z,10.24
2022-11-10T09:56:16.462Z,10.33
2022-11-10T09:57:16.893Z,10.29
2022-11-10T09:58:16.321Z,10.39
2022-11-10T09:59:16.829Z,10.47
2022-11-10T10:00:16.349Z,10.54
2022-11-10T10:01:16.841Z,10.48
2022-11-10T10:02:16.462Z,10.67
2022-11-10T10:03:16.949Z,10.74
2022-11-10T10:04:16.514Z,10.75
2022-11-10T10:05:17.018Z,10.74
2022-11-10T10:06:16.475Z,10.70
2022-11-10T10:07:16.972Z,10.77
2022-11-10T10:08:16.516Z,10.82
2022-11-10T10:09:16.946Z,10.81
2022-11-10T10:10:17.635Z,10.85
2022-11-10T10:11:16.392Z,10.82
2022-11-10T10:12:16.382Z,10.81
2022-11-10T10:13:16.830Z,10.81
2022-11-10T10:14:17.317Z,10.82
2022-11-10T10:15:16.784Z,10.84
2022-11-10T10:16:17.291Z,10.78
2022-11-10T10:17:16.775Z,10.77
2022-11-10T10:18:17.262Z,10.77
2022-11-10T10:19:16.721Z,10.79
2022-11-10T10:20:17.189Z,10.78
2022-11-10T10:21:16.657Z,10.82
2022-11-10T10:22:16.977Z,10.84
2022-11-10T10:23:16.551Z,10.87
2022-11-10T10:24:21.694Z,10.87
2022-11-10T10:25:16.934Z,10.87
2022-11-10T10:26:16.374Z,10.89
2022-11-10T10:27:16.826Z,10.87
2022-11-10T10:28:17.301Z,10.89
2022-11-10T10:29:16.758Z,10.95
2022-11-10T10:30:17.225Z,11.02
2022-11-10T10:31:16.688Z,11.02
2022-11-10T10:32:16.438Z,11.00
2022-11-10T10:33:16.910Z,11.05
2022-11-10T10:34:16.386Z,11.13
2022-11-10T10:35:16.880Z,11.22
2022-11-10T10:36:16.353Z,11.20
2022-11-10T10:37:16.816Z,11.05
2022-11-10T10:38:16.344Z,11.09
2022-11-10T10:39:16.818Z,11.07
2022-11-10T10:40:17.255Z,11.22
2022-11-10T10:41:21.021Z,11.17
2022-11-10T10:42:16.965Z,11.25
2022-11-10T10:43:16.428Z,11.37
2022-11-10T10:44:16.868Z,11.53
2022-11-10T10:45:16.407Z,11.36
2022-11-10T10:46:17.027Z,11.39
2022-11-10T10:47:16.517Z,11.44
2022-11-10T10:48:17.025Z,11.44
2022-11-10T10:49:28.962Z,11.40
2022-11-10T10:50:16.781Z,11.33
2022-11-10T10:51:17.252Z,11.29
2022-11-10T10:52:17.066Z,11.31
2022-11-10T10:53:16.494Z,11.25
2022-11-10T10:54:16.956Z,11.19
2022-11-10T10:55:16.401Z,11.19
2022-11-10T10:56:16.974Z,11.13
2022-11-10T10:57:16.423Z,11.15
2022-11-10T10:58:16.873Z,11.07
2022-11-10T10:59:16.359Z,10.99
2022-11-10T11:00:16.904Z,11.00
2022-11-10T11:01:16.621Z,10.96
2022-11-10T11:02:16.579Z,10.92
2022-11-10T11:03:17.069Z,10.94
2022-11-10T11:04:16.538Z,10.87
2022-11-10T11:05:17.045Z,10.82
2022-11-10T11:06:16.515Z,10.84
2022-11-10T11:07:17.006Z,10.96
2022-11-10T11:08:16.569Z,10.99
2022-11-10T11:09:17.045Z,10.89
2022-11-10T11:10:16.610Z,10.95
2022-11-10T11:11:17.168Z,10.96
2022-11-10T11:12:16.296Z,10.92
2022-11-10T11:13:16.753Z,10.92
2022-11-10T11:14:17.247Z,10.88
2022-11-10T11:15:16.745Z,10.88
2022-11-10T11:16:17.224Z,10.95
2022-11-10T11:17:16.753Z,10.95
2022-11-10T11:18:17.288Z,10.91
2022-11-10T11:19:16.753Z,10.85
2022-11-10T11:20:17.256Z,10.81
2022-11-10T11:21:16.716Z,10.85
2022-11-10T11:22:16.287Z,10.84
2022-11-10T11:23:16.733Z,10.81
2022-11-10T11:24:17.187Z,10.79
2022-11-10T11:25:16.619Z,10.74
2022-11-10T11:26:17.068Z,10.72
2022-11-10T11:27:16.503Z,10.63
2022-11-10T11:28:16.965Z,10.64
2022-11-10T11:29:16.429Z,10.64
2022-11-10T11:30:16.905Z,10.63
2022-11-10T11:31:16.379Z,10.64
2022-11-10T11:32:17.061Z,10.63
2022-11-10T11:33:16.552Z,10.64
2022-11-10T11:34:17.032Z,10.70
2022-11-10T11:35:16.491Z,10.71
2022-11-10T11:36:16.958Z,10.82
2022-11-10T11:37:19.394Z,10.82
2022-11-10T11:38:17.237Z,10.81
2022-11-10T11:39:16.691Z,10.82
2022-11-10T11:40:17.131Z,10.82
2022-11-10T11:41:16.587Z,10.99
2022-11-10T11:42:17.082Z,11.07
2022-11-10T11:43:16.585Z,11.17
2022-11-10T11:44:17.060Z,11.19
2022-11-10T11:45:16.536Z,11.29
2022-11-10T11:46:17.012Z,11.25
2022-11-10T11:47:16.500Z,11.31
2022-11-10T11:48:16.975Z,11.31
2022-11-10T11:49:16.445Z,11.33
2022-11-10T11:50:16.912Z,11.39
2022-11-10T11:51:16.385Z,11.57
2022-11-10T11:52:16.929Z,11.61
2022-11-10T11:53:16.395Z,11.65
2022-11-10T11:54:16.896Z,11.67
2022-11-10T11:55:16.340Z,11.61
2022-11-10T11:56:16.789Z,11.81
2022-11-10T11:57:17.262Z,11.78
2022-11-10T11:58:16.752Z,11.75
2022-11-10T11:59:17.882Z,11.72
2022-11-10T12:00:16.382Z,11.74
2022-11-10T12:01:16.892Z,11.77
2022-11-10T12:02:17.357Z,11.67
2022-11-10T12:03:16.991Z,11.63
2022-11-10T12:04:16.481Z,11.65
2022-11-10T12:05:16.947Z,11.57
2022-11-10T12:06:16.414Z,11.54
2022-11-10T12:07:16.951Z,11.60
2022-11-10T12:08:16.656Z,11.58
2022-11-10T12:09:17.106Z,11.43
2022-11-10T12:10:16.576Z,11.47
2022-11-10T12:11:17.032Z,11.43
2022-11-10T12:12:17.132Z,11.65
2022-11-10T12:13:16.597Z,11.58
2022-11-10T12:14:17.072Z,11.54
2022-11-10T12:15:16.543Z,11.46
2022-11-10T12:16:17.046Z,11.71
2022-11-10T12:17:16.547Z,11.80
2022-11-10T12:18:17.037Z,11.75
2022-11-10T12:19:16.487Z,11.91
2022-11-10T12:20:17.006Z,12.08
2022-11-10T12:21:16.510Z,12.22
2022-11-10T12:22:16.680Z,12.41
2022-11-10T12:23:17.123Z,12.30
2022-11-10T12:24:16.576Z,12.19
2022-11-10T12:25:17.036Z,12.20
2022-11-10T12:26:16.500Z,12.36
2022-11-10T12:27:16.956Z,12.28
2022-11-10T12:28:16.445Z,12.23
2022-11-10T12:29:16.938Z,12.25
2022-11-10T12:30:16.476Z,12.40
2022-11-10T12:31:16.996Z,12.53
2022-11-10T12:32:16.712Z,12.43
2022-11-10T12:33:17.198Z,12.56
2022-11-10T12:34:16.676Z,12.64
2022-11-10T12:35:17.108Z,12.53
2022-11-10T12:36:16.556Z,12.60
2022-11-10T12:37:16.989Z,12.54
2022-11-10T12:38:16.427Z,12.67
2022-11-10T12:39:16.865Z,12.82
2022-11-10T12:40:16.318Z,12.58
2022-11-10T12:41:16.775Z,12.66
2022-11-10T12:42:16.470Z,12.61
2022-11-10T12:43:16.937Z,12.74
2022-11-10T12:44:16.397Z,12.95
2022-11-10T12:45:16.897Z,13.02
2022-11-10T12:46:16.385Z,12.98
2022-11-10T12:47:16.845Z,13.01
2022-11-10T12:48:16.346Z,12.98
2022-11-10T12:49:16.803Z,13.04
2022-11-10T12:50:17.234Z,13.06
2022-11-10T12:51:16.688Z,12.89
2022-11-10T12:52:17.007Z,12.81
2022-11-10T12:53:16.447Z,12.75
2022-11-10T12:54:17.138Z,12.70
2022-11-10T12:55:16.645Z,12.78
2022-11-10T12:56:17.110Z,12.71
2022-11-10T12:57:16.580Z,12.87
2022-11-10T12:58:17.051Z,13.04
2022-11-10T12:59:16.521Z,12.94
2022-11-10T13:00:19.405Z,12.87
2022-11-10T13:01:16.804Z,12.89
2022-11-10T13:02:16.496Z,13.02
2022-11-10T13:03:16.948Z,13.14
2022-11-10T13:04:16.418Z,13.12
2022-11-10T13:05:16.855Z,13.06
2022-11-10T13:06:16.309Z,12.92
2022-11-10T13:07:16.842Z,12.88
2022-11-10T13:08:16.388Z,12.84
2022-11-10T13:09:16.836Z,12.77